createdAt,value
2019-04-26T00:01:35.929Z,92629.89
2019-04-26T00:04:04.374Z,92633.72
2019-04-26T00:06:32.631Z,92632.86
2019-04-26T00:09:05.555Z,92632.55
2019-04-26T00:11:38.222Z,92634.27
2019-04-26T00:17:01.249Z,92646.16
2019-04-26T00:19:29.835Z,92641.20
2019-04-26T00:21:58.301Z,92644.72
2019-04-26T00:24:28.495Z,92663.19
2019-04-26T00:26:57.091Z,92694.53
2019-04-26T00:29:25.370Z,92683.27
2019-04-26T00:31:53.830Z,92683.08
2019-04-26T00:34:22.155Z,92684.14
2019-04-26T00:36:50.447Z,92681.03
2019-04-26T00:39:18.761Z,92669.08
2019-04-26T00:41:47.116Z,92676.81
2019-04-26T00:44:16.572Z,92682.63
2019-04-26T00:46:44.898Z,92686.17
2019-04-26T00:49:14.073Z,92676.59
2019-04-26T00:51:43.281Z,92671.88
2019-04-26T00:54:11.651Z,92690.72
2019-04-26T00:56:39.978Z,92691.07
2019-04-26T00:59:08.628Z,92688.33
2019-04-26T01:01:38.592Z,92692.02
2019-04-26T01:04:07.069Z,92688.52
2019-04-26T01:06:36.991Z,92700.48
2019-04-26T01:11:33.585Z,92697.91
2019-04-26T01:14:01.830Z,92705.73
2019-04-26T01:16:30.101Z,92713.87
2019-04-26T01:18:58.345Z,92708.37
2019-04-26T01:21:27.499Z,92691.91
2019-04-26T01:23:55.739Z,92693.77
2019-04-26T01:26:36.227Z,92698.70
2019-04-26T01:29:07.820Z,92702.91
2019-04-26T01:31:50.917Z,92712.42
2019-04-26T01:37:11.809Z,92725.16
2019-04-26T01:39:42.054Z,92739.56
2019-04-26T01:42:14.647Z,92731.40
2019-04-26T01:44:45.544Z,92743.55
2019-04-26T01:47:14.155Z,92726.65
2019-04-26T01:49:42.402Z,92731.37
2019-04-26T01:52:11.045Z,92727.95
2019-04-26T01:54:42.922Z,92731.80
2019-04-26T01:57:11.209Z,92722.53
2019-04-26T01:59:42.736Z,92724.88
2019-04-26T02:02:32.014Z,92737.56
2019-04-26T02:05:02.003Z,92739.22
2019-04-26T02:07:38.067Z,92745.34
2019-04-26T02:10:14.918Z,92746.34
2019-04-26T02:12:44.960Z,92741.50
2019-04-26T02:15:13.285Z,92728.49
2019-04-26T02:17:41.648Z,92714.91
2019-04-26T02:20:10.005Z,92711.23
2019-04-26T02:22:39.946Z,92711.95
2019-04-26T02:25:08.246Z,92739.08
2019-04-26T02:27:36.570Z,92740.05
2019-04-26T02:30:07.255Z,92744.92
2019-04-26T02:32:37.049Z,92745.74
2019-04-26T02:35:06.600Z,92756.20
2019-04-26T02:37:36.883Z,92756.48
2019-04-26T02:40:11.086Z,92746.41
2019-04-26T02:42:40.843Z,92741.66
2019-04-26T02:45:22.677Z,92742.02
2019-04-26T02:47:56.092Z,92744.76
2019-04-26T02:50:36.294Z,92750.48
2019-04-26T02:53:42.497Z,92746.56
2019-04-26T02:56:13.375Z,92757.27
2019-04-26T02:59:00.045Z,92759.91
2019-04-26T03:01:31.264Z,92760.59
2019-04-26T03:03:58.798Z,92762.69
2019-04-26T03:06:27.114Z,92764.86
2019-04-26T03:08:55.776Z,92777.14
2019-04-26T03:11:26.412Z,92765.67
2019-04-26T03:13:59.765Z,92774.02
2019-04-26T03:16:35.163Z,92773.70
2019-04-26T03:19:08.868Z,92774.89
2019-04-26T03:21:40.507Z,92779.94
2019-04-26T03:24:20.981Z,92783.48
2019-04-26T03:26:58.449Z,92782.17
2019-04-26T03:29:32.902Z,92787.63
2019-04-26T03:32:40.822Z,92797.67
2019-04-26T03:35:24.648Z,92786.81
2019-04-26T03:38:12.739Z,92796.63
2019-04-26T03:40:54.691Z,92795.27
2019-04-26T03:43:43.168Z,92799.52
2019-04-26T03:46:37.041Z,92803.61
2019-04-26T03:49:11.613Z,92808.12
2019-04-26T03:52:05.541Z,92807.57
2019-04-26T03:54:35.526Z,92806.31
2019-04-26T03:57:17.949Z,92807.88
2019-04-26T03:59:56.790Z,92810.44
2019-04-26T04:02:53.681Z,92821.28
2019-04-26T04:05:29.504Z,92821.28
2019-04-26T04:07:57.792Z,92828.88
2019-04-26T04:10:32.026Z,92822.08
2019-04-26T04:13:09.225Z,92824.20
2019-04-26T04:16:01.273Z,92831.13
2019-04-26T04:18:29.597Z,92834.58
2019-04-26T04:21:11.581Z,92835.73
2019-04-26T04:23:44.757Z,92832.80
2019-04-26T04:26:13.645Z,92833.70
2019-04-26T04:29:00.200Z,92838.41
2019-04-26T04:31:42.173Z,92837.32
2019-04-26T04:34:13.345Z,92829.30
2019-04-26T04:36:46.909Z,92838.63
2019-04-26T04:39:17.825Z,92855.98
2019-04-26T04:42:11.616Z,92854.80
2019-04-26T04:45:07.116Z,92857.14
2019-04-26T04:47:55.422Z,92865.98
2019-04-26T04:50:34.459Z,92879.36
2019-04-26T04:53:14.665Z,92883.50
2019-04-26T04:55:52.911Z,92882.95
2019-04-26T04:58:24.426Z,92887.77
2019-04-26T05:01:14.128Z,92892.37
2019-04-26T05:03:46.960Z,92886.89
2019-04-26T05:06:51.806Z,92891.14
2019-04-26T05:09:23.330Z,92901.36
2019-04-26T05:12:00.775Z,92908.89
2019-04-26T05:14:48.058Z,92899.02
2019-04-26T05:17:43.043Z,92908.19
2019-04-26T05:20:32.307Z,92914.97
2019-04-26T05:23:26.273Z,92918.94
2019-04-26T05:26:28.102Z,92915.22
2019-04-26T05:29:09.854Z,92904.37
2019-04-26T05:31:45.883Z,92922.11
2019-04-26T05:34:30.383Z,92936.77
2019-04-26T05:37:22.672Z,92945.27
2019-04-26T05:40:06.005Z,92948.52
2019-04-26T05:43:19.691Z,92953.45
2019-04-26T05:45:58.163Z,92944.81
2019-04-26T05:48:43.421Z,92947.54
2019-04-26T05:51:38.833Z,92962.75
2019-04-26T05:54:46.147Z,92960.86
2019-04-26T05:57:41.880Z,92963.25
2019-04-26T06:00:41.669Z,92970.28
2019-04-26T06:03:29.089Z,92973.36
2019-04-26T06:06:10.918Z,92984.78
2019-04-26T06:09:03.550Z,92984.73
2019-04-26T06:12:05.246Z,92990.95
2019-04-26T06:14:40.804Z,92992.86
2019-04-26T06:17:34.274Z,92989.59
2019-04-26T06:20:30.038Z,92991.95
2019-04-26T06:23:10.214Z,92990.76
2019-04-26T06:25:49.094Z,92984.48
2019-04-26T06:28:26.452Z,92990.20
2019-04-26T06:31:03.801Z,93000.02
2019-04-26T06:33:35.440Z,92994.55
2019-04-26T06:36:06.790Z,93007.41
2019-04-26T06:39:02.140Z,93025.06
2019-04-26T06:42:05.069Z,93022.66
2019-04-26T06:44:58.355Z,93038.57
2019-04-26T06:47:43.183Z,93030.30
2019-04-26T06:50:45.764Z,93026.06
2019-04-26T06:53:17.317Z,93030.48
2019-04-26T06:56:11.249Z,93055.84
2019-04-26T06:59:17.251Z,93048.19
2019-04-26T07:01:51.532Z,93049.20
2019-04-26T07:04:43.353Z,93046.48
2019-04-26T07:07:20.482Z,93047.13
2019-04-26T07:09:58.854Z,93046.12
2019-04-26T07:12:37.697Z,93057.11
2019-04-26T07:15:28.062Z,93059.06
2019-04-26T07:18:06.328Z,93054.09
2019-04-26T07:20:44.955Z,93050.98
2019-04-26T07:23:41.984Z,93062.83
2019-04-26T07:26:24.902Z,93052.38
2019-04-26T07:29:29.873Z,93070.72
2019-04-26T07:32:23.887Z,93079.86
2019-04-26T07:35:13.814Z,93081.41
2019-04-26T07:38:01.303Z,93091.03
2019-04-26T07:40:57.544Z,93081.61
2019-04-26T07:43:50.314Z,93089.35
2019-04-26T07:46:39.783Z,93095.09
2019-04-26T07:49:12.430Z,93101.90
2019-04-26T07:52:18.696Z,93098.23
2019-04-26T07:55:06.696Z,93098.55
2019-04-26T07:57:47.013Z,93108.77
2019-04-26T08:00:17.931Z,93116.86
2019-04-26T08:03:13.008Z,93103.83
2019-04-26T08:05:54.094Z,93117.73
2019-04-26T08:08:24.506Z,93116.06
2019-04-26T08:11:12.839Z,93125.26
2019-04-26T08:14:06.209Z,93129.22
2019-04-26T08:16:51.595Z,93119.50
2019-04-26T08:19:21.387Z,93118.36
2019-04-26T08:21:50.605Z,93113.36
2019-04-26T08:24:21.492Z,93115.47
2019-04-26T08:27:21.468Z,93124.92
2019-04-26T08:29:44.533Z,93126.49
2019-04-26T08:32:15.425Z,93134.73
2019-04-26T08:34:47.045Z,93125.15
2019-04-26T08:40:08.660Z,93132.80
2019-04-26T08:42:41.632Z,93139.95
2019-04-26T08:45:27.781Z,93138.14
2019-04-26T08:48:15.602Z,93112.66
2019-04-26T08:50:45.940Z,93129.13
2019-04-26T08:53:14.957Z,93131.02
2019-04-26T08:55:43.370Z,93135.26
2019-04-26T08:58:14.387Z,93151.25
2019-04-26T09:00:45.283Z,93159.90
2019-04-26T09:03:15.167Z,93158.72
2019-04-26T09:05:51.421Z,93164.92
2019-04-26T09:08:19.976Z,93171.16
2019-04-26T09:10:48.694Z,93161.88
2019-04-26T09:13:17.012Z,93169.95
2019-04-26T09:16:06.901Z,93168.16
2019-04-26T09:18:43.037Z,93165.23
2019-04-26T09:21:05.172Z,93171.80
2019-04-26T09:23:52.171Z,93166.69
2019-04-26T09:32:11.897Z,93168.80
2019-04-26T09:34:41.591Z,93185.25
2019-04-26T09:37:11.221Z,93191.87
2019-04-26T09:39:41.694Z,93201.03
2019-04-26T09:42:12.083Z,93201.37
2019-04-26T09:44:44.660Z,93187.33
2019-04-26T09:47:17.456Z,93164.66
2019-04-26T09:49:47.453Z,93174.20
2019-04-26T09:52:17.352Z,93181.49
2019-04-26T09:54:45.667Z,93180.47
2019-04-26T09:57:13.896Z,93168.48
2019-04-26T09:59:42.139Z,93184.40
2019-04-26T10:02:11.182Z,93189.84
2019-04-26T10:04:39.440Z,93209.91
2019-04-26T10:07:07.737Z,93220.46
2019-04-26T10:09:36.005Z,93243.97
2019-04-26T10:12:05.925Z,93241.66
2019-04-26T10:14:41.593Z,93249.77
2019-04-26T10:17:17.485Z,93253.91
2019-04-26T10:19:50.006Z,93232.55
2019-04-26T10:22:18.287Z,93232.30
2019-04-26T10:24:46.533Z,93242.73
2019-04-26T10:27:14.809Z,93256.52
2019-04-26T10:29:43.054Z,93257.04
2019-04-26T10:32:11.333Z,93248.94
2019-04-26T10:34:42.832Z,93224.47
2019-04-26T10:37:09.590Z,93227.05
2019-04-26T10:39:37.848Z,93226.27
2019-04-26T10:42:06.120Z,93245.79
2019-04-26T10:44:35.891Z,93270.44
2019-04-26T10:47:05.995Z,93277.26
2019-04-26T10:49:40.395Z,93274.14
2019-04-26T10:52:11.928Z,93267.11
2019-04-26T10:54:45.807Z,93258.23
2019-04-26T10:57:17.088Z,93248.81
2019-04-26T10:59:49.755Z,93269.05
2019-04-26T11:02:19.200Z,93270.03
2019-04-26T11:04:47.447Z,93277.95
2019-04-26T11:07:15.723Z,93277.83
2019-04-26T11:09:43.981Z,93290.17
2019-04-26T11:12:13.738Z,93296.44
2019-04-26T11:14:41.371Z,93308.08
2019-04-26T11:17:11.426Z,93320.20
2019-04-26T11:19:39.691Z,93309.50
2019-04-26T11:22:08.041Z,93323.25
2019-04-26T11:24:36.281Z,93324.92
2019-04-26T11:27:05.380Z,93323.56
2019-04-26T11:29:34.520Z,93319.33
2019-04-26T11:32:04.227Z,93320.64
2019-04-26T11:34:32.633Z,93343.52
2019-04-26T11:37:00.888Z,93363.73
2019-04-26T11:39:29.146Z,93370.78
2019-04-26T11:41:57.430Z,93352.52
2019-04-26T11:44:27.569Z,93348.44
2019-04-26T11:46:59.044Z,93354.37
2019-04-26T11:49:26.511Z,93358.55
2019-04-26T11:51:54.775Z,93362.71
2019-04-26T11:54:23.032Z,93371.58
2019-04-26T11:56:51.312Z,93373.69
2019-04-26T11:59:19.565Z,93383.08
2019-04-26T12:01:47.812Z,93382.83
2019-04-26T12:04:33.835Z,93384.41
2019-04-26T12:07:19.879Z,93383.84
2019-04-26T12:09:49.757Z,93385.80
2019-04-26T12:12:18.023Z,93396.41
2019-04-26T12:14:46.317Z,93411.09
2019-04-26T12:17:14.567Z,93424.63
2019-04-26T12:19:42.849Z,93436.09
2019-04-26T12:22:11.105Z,93443.60
2019-04-26T12:24:39.378Z,93450.16
2019-04-26T12:27:10.262Z,93450.25
2019-04-26T12:29:37.622Z,93456.59
2019-04-26T12:32:05.869Z,93462.52
2019-04-26T12:34:34.146Z,93464.66
2019-04-26T12:37:02.399Z,93464.12
2019-04-26T12:39:32.324Z,93456.91
2019-04-26T12:42:00.652Z,93455.33
2019-04-26T12:44:32.198Z,93458.97
2019-04-26T12:47:03.475Z,93464.62
2019-04-26T12:49:32.267Z,93469.34
2019-04-26T12:52:00.566Z,93476.58
2019-04-26T12:54:28.875Z,93466.50
2019-04-26T12:56:57.210Z,93466.73
2019-04-26T12:59:26.556Z,93453.30
2019-04-26T13:02:05.479Z,93453.47
2019-04-26T13:04:35.519Z,93434.58
2019-04-26T13:07:07.022Z,93434.31
2019-04-26T13:09:37.450Z,93433.89
2019-04-26T13:12:09.570Z,93442.86
2019-04-26T13:14:45.612Z,93442.06
2019-04-26T13:17:24.436Z,93438.48
2019-04-26T13:19:54.054Z,93430.31
2019-04-26T13:22:22.694Z,93436.91
2019-04-26T13:24:50.976Z,93444.53
2019-04-26T13:27:19.251Z,93451.56
2019-04-26T13:29:48.400Z,93445.61
2019-04-26T13:32:17.536Z,93438.08
2019-04-26T13:34:45.818Z,93430.97
2019-04-26T13:37:14.090Z,93424.73
2019-04-26T13:39:42.367Z,93427.66
2019-04-26T13:42:18.654Z,93421.66
2019-04-26T13:44:57.441Z,93424.79
2019-04-26T13:47:36.424Z,93444.98
2019-04-26T13:50:17.088Z,93458.12
2019-04-26T13:52:45.374Z,93457.22
2019-04-26T13:55:13.642Z,93461.44
2019-04-26T13:57:44.609Z,93465.22
2019-04-26T14:00:13.522Z,93472.65
2019-04-26T14:02:41.772Z,93470.50
2019-04-26T14:05:11.086Z,93473.55
2019-04-26T14:07:40.019Z,93467.73
2019-04-26T14:10:08.298Z,93475.30
2019-04-26T14:12:36.543Z,93480.10
2019-04-26T14:15:08.584Z,93479.55
2019-04-26T14:17:36.141Z,93473.70
2019-04-26T14:20:05.857Z,93464.86
2019-04-26T14:22:42.363Z,93454.25
2019-04-26T14:25:15.070Z,93460.59
2019-04-26T14:27:51.546Z,93459.80
2019-04-26T14:30:21.063Z,93452.22
2019-04-26T14:32:49.316Z,93453.22
2019-04-26T14:35:17.629Z,93451.06
2019-04-26T14:37:49.796Z,93461.75
2019-04-26T14:40:17.837Z,93466.95
2019-04-26T14:42:48.490Z,93455.73
2019-04-26T14:45:23.348Z,93454.94
2019-04-26T14:47:47.596Z,93444.09
2019-04-26T14:50:16.560Z,93448.78
2019-04-26T14:52:46.381Z,93453.16
2019-04-26T14:55:16.451Z,93450.83
2019-04-26T14:57:46.857Z,93451.91
2019-04-26T15:00:16.832Z,93459.52
2019-04-26T15:05:46.284Z,93453.27
2019-04-26T15:08:13.359Z,93461.66
2019-04-26T15:10:46.644Z,93455.38
2019-04-26T15:13:19.430Z,93453.32
2019-04-26T15:15:45.872Z,93451.78
2019-04-26T15:18:12.462Z,93448.14
2019-04-26T15:20:40.748Z,93443.47
2019-04-26T15:23:09.038Z,93444.52
2019-04-26T15:25:37.312Z,93435.91
2019-04-26T15:28:06.791Z,93441.39
2019-04-26T15:30:43.195Z,93437.98
2019-04-26T15:33:08.918Z,93439.81
2019-04-26T15:35:35.870Z,93434.34
2019-04-26T15:38:04.331Z,93441.66
2019-04-26T15:40:37.983Z,93429.43
2019-04-26T15:43:14.745Z,93428.12
2019-04-26T15:45:42.736Z,93419.77
2019-04-26T15:48:16.175Z,93421.09
2019-04-26T15:50:48.451Z,93419.26
2019-04-26T15:53:14.794Z,93430.48
2019-04-26T15:55:43.634Z,93422.66
2019-04-26T15:58:11.919Z,93425.53
2019-04-26T16:00:40.241Z,93414.55
2019-04-26T16:03:08.512Z,93419.48
2019-04-26T16:05:36.943Z,93418.95
2019-04-26T16:08:05.288Z,93414.20
2019-04-26T16:10:38.065Z,93417.89
2019-04-26T16:13:16.126Z,93417.08
2019-04-26T16:15:33.684Z,93412.37
2019-04-26T16:18:03.866Z,93407.89
2019-04-26T16:20:38.017Z,93411.28
2019-04-26T16:23:06.228Z,93416.53
2019-04-26T16:25:34.443Z,93421.50
2019-04-26T16:28:18.655Z,93416.74
2019-04-26T16:30:48.543Z,93420.08
2019-04-26T16:33:18.455Z,93425.90
2019-04-26T16:35:46.706Z,93419.34
2019-04-26T16:38:19.954Z,93422.45
2019-04-26T16:40:52.167Z,93423.69
2019-04-26T16:43:34.862Z,93436.54
2019-04-26T16:45:48.363Z,93441.81
2019-04-26T16:48:17.332Z,93446.78
2019-04-26T16:50:46.687Z,93437.36
2019-04-26T16:53:36.810Z,93436.63
2019-04-26T16:55:52.289Z,93436.38
2019-04-26T16:58:15.013Z,93436.13
2019-04-26T17:00:51.579Z,93449.73
2019-04-26T17:03:13.350Z,93449.74
2019-04-26T17:05:48.504Z,93447.66
2019-04-26T17:08:12.900Z,93456.29
2019-04-26T17:10:42.044Z,93441.91
2019-04-26T17:13:10.411Z,93444.50
2019-04-26T17:15:38.739Z,93443.70
2019-04-26T17:18:07.032Z,93448.14
2019-04-26T17:20:35.353Z,93447.11
2019-04-26T17:23:05.267Z,93441.91
2019-04-26T17:25:35.524Z,93439.82
2019-04-26T17:28:03.877Z,93439.31
2019-04-26T17:30:34.472Z,93441.42
2019-04-26T17:33:02.964Z,93442.44
2019-04-26T17:35:32.784Z,93443.25
2019-04-26T17:38:02.059Z,93437.25
2019-04-26T17:40:36.158Z,93436.98
2019-04-26T17:43:00.592Z,93433.84
2019-04-26T17:45:30.542Z,93433.59
2019-04-26T17:48:01.445Z,93430.45
2019-04-26T17:50:30.946Z,93426.03
2019-04-26T17:53:00.573Z,93421.09
2019-04-26T17:55:31.820Z,93424.73
2019-04-26T17:58:11.427Z,93430.98
2019-04-26T18:00:45.341Z,93428.39
2019-04-26T18:03:02.350Z,93430.98
2019-04-26T18:05:44.926Z,93437.52
2019-04-26T18:08:30.491Z,93436.47
2019-04-26T18:10:30.728Z,93439.61
2019-04-26T18:13:00.441Z,93437.52
2019-04-26T18:15:28.739Z,93428.64
2019-04-26T18:18:04.131Z,93434.66
2019-04-26T18:20:41.354Z,93430.72
2019-04-26T18:23:15.453Z,93419.50
2019-04-26T18:25:45.063Z,93422.13
2019-04-26T18:28:14.582Z,93423.70
2019-04-26T18:30:46.179Z,93432.30
2019-04-26T18:33:13.445Z,93427.59
2019-04-26T18:35:43.452Z,93427.85
2019-04-26T18:38:12.579Z,93437.51
2019-04-26T18:40:59.014Z,93438.55
2019-04-26T18:43:12.582Z,93442.97
2019-04-26T18:45:42.814Z,93445.59
2019-04-26T18:48:13.813Z,93454.45
2019-04-26T18:50:42.018Z,93449.50
2019-04-26T18:53:14.580Z,93447.91
2019-04-26T18:55:44.960Z,93449.44
2019-04-26T18:58:13.633Z,93441.61
2019-04-26T19:00:43.702Z,93449.19
2019-04-26T19:03:13.464Z,93451.26
2019-04-26T19:05:43.184Z,93451.27
2019-04-26T19:08:12.829Z,93456.20
2019-04-26T19:10:43.556Z,93462.73
2019-04-26T19:13:31.603Z,93464.53
2019-04-26T19:16:06.390Z,93471.02
2019-04-26T19:18:37.873Z,93482.27
2019-04-26T19:21:16.783Z,93474.45
2019-04-26T19:23:45.041Z,93471.33
2019-04-26T19:26:14.041Z,93479.13
2019-04-26T19:28:44.604Z,93481.20
2019-04-26T19:31:12.999Z,93490.08
2019-04-26T19:33:42.804Z,93488.75
2019-04-26T19:36:12.351Z,93493.97
2019-04-26T19:38:45.190Z,93497.83
2019-04-26T19:41:11.955Z,93498.33
2019-04-26T19:43:43.631Z,93499.63
2019-04-26T19:46:12.928Z,93503.03
2019-04-26T19:48:55.580Z,93498.13
2019-04-26T19:51:27.091Z,93502.80
2019-04-26T19:53:55.900Z,93496.79
2019-04-26T19:56:28.783Z,93491.58
2019-04-26T19:58:58.524Z,93495.97
2019-04-26T20:01:27.011Z,93503.42
2019-04-26T20:03:55.535Z,93509.29
2019-04-26T20:06:26.661Z,93502.52
2019-04-26T20:08:53.792Z,93508.02
2019-04-26T20:11:22.064Z,93502.85
2019-04-26T20:13:51.893Z,93501.17
2019-04-26T20:16:22.189Z,93505.58
2019-04-26T20:18:50.297Z,93509.98
2019-04-26T20:21:18.572Z,93515.87
2019-04-26T20:23:47.564Z,93511.70
2019-04-26T20:26:15.985Z,93512.68
2019-04-26T20:28:44.243Z,93515.77
2019-04-26T20:31:16.852Z,93517.03
2019-04-26T20:33:47.635Z,93514.20
2019-04-26T20:36:15.104Z,93508.73
2019-04-26T20:38:47.286Z,93506.62
2019-04-26T20:41:15.067Z,93514.43
2019-04-26T20:43:48.564Z,93513.44
2019-04-26T20:46:15.507Z,93503.25
2019-04-26T20:48:43.980Z,93504.02
2019-04-26T20:51:12.266Z,93509.66
2019-04-26T20:53:43.463Z,93498.66
2019-04-26T20:56:16.245Z,93498.84
2019-04-26T20:58:45.445Z,93500.63
2019-04-26T21:01:14.137Z,93507.05
2019-04-26T21:03:42.862Z,93505.48
2019-04-26T21:06:11.913Z,93509.94
2019-04-26T21:08:42.148Z,93511.34
2019-04-26T21:11:11.157Z,93509.28
2019-04-26T21:13:41.509Z,93516.05
2019-04-26T21:16:14.383Z,93511.34
2019-04-26T21:18:42.282Z,93508.79
2019-04-26T21:21:10.473Z,93506.69
2019-04-26T21:23:41.795Z,93509.33
2019-04-26T21:26:29.395Z,93504.09
2019-04-26T21:29:13.394Z,93509.06
2019-04-26T21:31:45.561Z,93504.78
2019-04-26T21:34:20.087Z,93492.77
2019-04-26T21:36:58.523Z,93497.89
2019-04-26T21:39:31.095Z,93497.30
2019-04-26T21:42:01.020Z,93491.28
2019-04-26T21:44:29.267Z,93490.19
2019-04-26T21:46:58.964Z,93497.67
2019-04-26T21:49:26.729Z,93497.86
2019-04-26T21:51:55.017Z,93493.63
2019-04-26T21:54:24.923Z,93495.42
2019-04-26T21:56:53.787Z,93493.03
2019-04-26T21:59:22.157Z,93502.39
2019-04-26T22:01:53.820Z,93503.23
2019-04-26T22:04:20.617Z,93512.85
2019-04-26T22:06:48.843Z,93517.03
2019-04-26T22:09:34.982Z,93521.80
2019-04-26T22:12:00.756Z,93522.09
2019-04-26T22:14:34.147Z,93517.41
2019-04-26T22:17:05.360Z,93518.67
2019-04-26T22:19:53.387Z,93516.54
2019-04-26T22:22:23.412Z,93518.52
2019-04-26T22:24:55.496Z,93512.92
2019-04-26T22:27:25.274Z,93515.85
2019-04-26T22:29:55.107Z,93519.55
2019-04-26T22:32:23.506Z,93526.74
2019-04-26T22:34:53.730Z,93518.92
2019-04-26T22:37:29.553Z,93525.42
2019-04-26T22:39:51.758Z,93523.28
2019-04-26T22:42:20.692Z,93528.28
2019-04-26T22:44:50.617Z,93524.39
2019-04-26T22:47:20.512Z,93525.21
2019-04-26T22:49:48.857Z,93524.80
2019-04-26T22:52:17.117Z,93521.55
2019-04-26T22:54:46.773Z,93518.67
2019-04-26T22:57:16.461Z,93523.17
2019-04-26T22:59:49.867Z,93518.59
2019-04-26T23:02:18.375Z,93515.30
2019-04-26T23:04:45.516Z,93518.38
2019-04-26T23:07:13.847Z,93522.84
2019-04-26T23:09:47.456Z,93519.20
2019-04-26T23:12:16.409Z,93519.22
2019-04-26T23:14:48.190Z,93517.97
2019-04-26T23:17:27.211Z,93526.58
2019-04-26T23:20:02.999Z,93522.35
2019-04-26T23:22:33.660Z,93517.14
2019-04-26T23:25:03.156Z,93520.80
2019-04-26T23:27:33.259Z,93520.04
2019-04-26T23:30:01.413Z,93515.92
2019-04-26T23:32:29.664Z,93510.44
2019-04-26T23:34:58.333Z,93526.58
2019-04-26T23:37:27.909Z,93519.55
2019-04-26T23:39:56.197Z,93512.83
2019-04-26T23:42:25.085Z,93514.80
2019-04-26T23:44:53.506Z,93508.78
2019-04-26T23:47:23.685Z,93508.56
2019-04-26T23:49:53.821Z,93500.78
2019-04-26T23:52:23.149Z,93510.70
2019-04-26T23:54:53.017Z,93499.73
2019-04-26T23:57:21.703Z,93507.87
2019-04-26T23:59:51.081Z,93510.75
